sensor_id;sensor_type;location;lat;lon;timestamp;pressure;altitude;pressure_sealevel;temperature;humidity
69223;BME280;56514;51.816;-0.026;2022-08-04T00:01:01;100802.59;;;21.63;56.29
69223;BME280;56514;51.816;-0.026;2022-08-04T00:03:59;100806.59;;;21.67;55.66
69223;BME280;56514;51.816;-0.026;2022-08-04T00:07:15;100804.09;;;21.66;55.47
69223;BME280;56514;51.816;-0.026;2022-08-04T00:10:05;100801.38;;;21.74;54.44
69223;BME280;56514;51.816;-0.026;2022-08-04T00:12:54;100797.69;;;21.67;54.09
69223;BME280;56514;51.816;-0.026;2022-08-04T00:15:40;100792.91;;;21.54;54.40
69223;BME280;56514;51.816;-0.026;2022-08-04T00:18:28;100799.25;;;21.53;54.68
69223;BME280;56514;51.816;-0.026;2022-08-04T00:21:21;100804.78;;;21.52;54.96
69223;BME280;56514;51.816;-0.026;2022-08-04T00:24:09;100794.72;;;21.54;54.70
69223;BME280;56514;51.816;-0.026;2022-08-04T00:26:56;100794.22;;;21.58;54.28
69223;BME280;56514;51.816;-0.026;2022-08-04T00:29:42;100786.16;;;21.58;54.18
69223;BME280;56514;51.816;-0.026;2022-08-04T00:32:27;100793.06;;;21.53;54.13
69223;BME280;56514;51.816;-0.026;2022-08-04T00:35:13;100799.91;;;21.63;53.26
69223;BME280;56514;51.816;-0.026;2022-08-04T00:37:59;100799.28;;;21.45;54.07
69223;BME280;56514;51.816;-0.026;2022-08-04T00:44:18;100792.56;;;21.41;53.91
69223;BME280;56514;51.816;-0.026;2022-08-04T00:56:37;100785.38;;;21.42;53.18
69223;BME280;56514;51.816;-0.026;2022-08-04T00:59:49;100791.09;;;21.39;53.08
69223;BME280;56514;51.816;-0.026;2022-08-04T01:05:51;100783.38;;;21.36;53.00
69223;BME280;56514;51.816;-0.026;2022-08-04T01:17:42;100772.63;;;21.44;51.79
69223;BME280;56514;51.816;-0.026;2022-08-04T01:20:40;100777.31;;;21.42;52.38
69223;BME280;56514;51.816;-0.026;2022-08-04T01:26:42;100780.84;;;21.42;51.55
69223;BME280;56514;51.816;-0.026;2022-08-04T01:29:54;100774.13;;;21.38;51.65
69223;BME280;56514;51.816;-0.026;2022-08-04T01:32:37;100775.47;;;21.42;51.56
69223;BME280;56514;51.816;-0.026;2022-08-04T01:41:13;100775.84;;;21.31;51.54
69223;BME280;56514;51.816;-0.026;2022-08-04T01:44:00;100771.81;;;21.27;51.85
69223;BME280;56514;51.816;-0.026;2022-08-04T01:46:49;100778.03;;;21.20;52.09
69223;BME280;56514;51.816;-0.026;2022-08-04T01:49:36;100768.81;;;21.22;51.93
69223;BME280;56514;51.816;-0.026;2022-08-04T01:52:23;100767.81;;;21.23;52.06
69223;BME280;56514;51.816;-0.026;2022-08-04T01:55:11;100766.97;;;21.23;51.86
69223;BME280;56514;51.816;-0.026;2022-08-04T01:57:59;100763.81;;;21.19;51.99
69223;BME280;56514;51.816;-0.026;2022-08-04T02:01:03;100771.50;;;21.22;52.22
69223;BME280;56514;51.816;-0.026;2022-08-04T02:03:50;100773.34;;;21.22;51.71
69223;BME280;56514;51.816;-0.026;2022-08-04T02:06:58;100778.19;;;21.18;51.79
69223;BME280;56514;51.816;-0.026;2022-08-04T02:16:20;100768.19;;;21.04;52.22
69223;BME280;56514;51.816;-0.026;2022-08-04T02:22:09;100774.88;;;21.00;52.15
69223;BME280;56514;51.816;-0.026;2022-08-04T02:25:05;100779.06;;;20.95;52.40
69223;BME280;56514;51.816;-0.026;2022-08-04T02:36:47;100779.94;;;20.95;52.46
69223;BME280;56514;51.816;-0.026;2022-08-04T02:39:34;100778.38;;;20.92;52.33
69223;BME280;56514;51.816;-0.026;2022-08-04T02:42:20;100782.91;;;20.92;52.28
69223;BME280;56514;51.816;-0.026;2022-08-04T02:45:07;100784.25;;;20.88;52.54
69223;BME280;56514;51.816;-0.026;2022-08-04T02:47:54;100781.75;;;20.86;52.43
69223;BME280;56514;51.816;-0.026;2022-08-04T02:50:42;100781.91;;;20.77;52.76
69223;BME280;56514;51.816;-0.026;2022-08-04T02:53:29;100778.25;;;20.78;53.08
69223;BME280;56514;51.816;-0.026;2022-08-04T02:56:18;100779.75;;;20.88;52.63
69223;BME280;56514;51.816;-0.026;2022-08-04T02:59:09;100784.59;;;20.85;52.66
69223;BME280;56514;51.816;-0.026;2022-08-04T03:01:55;100785.25;;;20.79;52.74
69223;BME280;56514;51.816;-0.026;2022-08-04T03:04:51;100774.72;;;20.77;52.83
69223;BME280;56514;51.816;-0.026;2022-08-04T03:11:09;100775.88;;;20.59;53.34
69223;BME280;56514;51.816;-0.026;2022-08-04T03:20:44;100779.91;;;20.55;53.54
69223;BME280;56514;51.816;-0.026;2022-08-04T03:48:48;100774.56;;;20.05;54.75
69223;BME280;56514;51.816;-0.026;2022-08-04T03:54:43;100777.91;;;19.91;55.63
69223;BME280;56514;51.816;-0.026;2022-08-04T04:04:07;100791.16;;;19.67;56.33
69223;BME280;56514;51.816;-0.026;2022-08-04T04:10:06;100796.53;;;19.67;56.05
69223;BME280;56514;51.816;-0.026;2022-08-04T04:13:19;100796.19;;;19.70;56.21
69223;BME280;56514;51.816;-0.026;2022-08-04T04:16:12;100790.00;;;19.62;56.30
69223;BME280;56514;51.816;-0.026;2022-08-04T04:25:30;100794.59;;;19.44;57.03
69223;BME280;56514;51.816;-0.026;2022-08-04T04:28:46;100799.66;;;19.29;57.63
69223;BME280;56514;51.816;-0.026;2022-08-04T04:31:46;100794.03;;;19.14;57.93
69223;BME280;56514;51.816;-0.026;2022-08-04T04:41:03;100798.81;;;19.03;58.10
69223;BME280;56514;51.816;-0.026;2022-08-04T04:44:26;100799.94;;;19.00;58.28
69223;BME280;56514;51.816;-0.026;2022-08-04T04:57:12;100817.63;;;18.93;58.37
69223;BME280;56514;51.816;-0.026;2022-08-04T05:00:05;100815.41;;;18.89;58.13
69223;BME280;56514;51.816;-0.026;2022-08-04T05:09:17;100830.06;;;18.85;59.47
69223;BME280;56514;51.816;-0.026;2022-08-04T05:12:36;100838.22;;;18.83;58.95
69223;BME280;56514;51.816;-0.026;2022-08-04T05:15:29;100834.59;;;18.84;58.79
69223;BME280;56514;51.816;-0.026;2022-08-04T05:18:21;100837.63;;;18.89;59.09
69223;BME280;56514;51.816;-0.026;2022-08-04T05:21:41;100844.34;;;18.93;58.98
69223;BME280;56514;51.816;-0.026;2022-08-04T05:24:31;100840.13;;;18.91;58.73
69223;BME280;56514;51.816;-0.026;2022-08-04T05:27:24;100847.34;;;18.90;58.47
69223;BME280;56514;51.816;-0.026;2022-08-04T05:30:12;100849.69;;;18.93;58.56
69223;BME280;56514;51.816;-0.026;2022-08-04T05:33:04;100855.34;;;18.90;58.75
69223;BME280;56514;51.816;-0.026;2022-08-04T05:35:57;100850.97;;;18.89;58.76
69223;BME280;56514;51.816;-0.026;2022-08-04T05:38:44;100858.69;;;18.92;58.95
69223;BME280;56514;51.816;-0.026;2022-08-04T05:41:32;100862.06;;;18.94;58.92
69223;BME280;56514;51.816;-0.026;2022-08-04T05:44:19;100863.44;;;18.98;58.93
69223;BME280;56514;51.816;-0.026;2022-08-04T05:47:06;100865.50;;;19.04;58.80
69223;BME280;56514;51.816;-0.026;2022-08-04T05:49:53;100863.34;;;19.08;58.74
69223;BME280;56514;51.816;-0.026;2022-08-04T05:52:40;100866.25;;;19.14;58.56
69223;BME280;56514;51.816;-0.026;2022-08-04T05:55:26;100867.44;;;19.20;58.43
69223;BME280;56514;51.816;-0.026;2022-08-04T05:58:14;100869.22;;;19.29;58.10
69223;BME280;56514;51.816;-0.026;2022-08-04T06:01:01;100860.56;;;19.35;57.92
69223;BME280;56514;51.816;-0.026;2022-08-04T06:03:50;100856.91;;;19.36;58.41
69223;BME280;56514;51.816;-0.026;2022-08-04T06:06:37;100867.84;;;19.43;57.86
69223;BME280;56514;51.816;-0.026;2022-08-04T06:09:24;100862.16;;;19.46;57.96
69223;BME280;56514;51.816;-0.026;2022-08-04T06:12:24;100865.19;;;19.51;57.88
69223;BME280;56514;51.816;-0.026;2022-08-04T06:15:13;100869.28;;;19.63;57.50
69223;BME280;56514;51.816;-0.026;2022-08-04T06:18:02;100864.44;;;19.66;57.62
69223;BME280;56514;51.816;-0.026;2022-08-04T06:20:51;100870.50;;;19.68;57.57
69223;BME280;56514;51.816;-0.026;2022-08-04T06:23:38;100867.19;;;19.49;58.11
69223;BME280;56514;51.816;-0.026;2022-08-04T06:26:25;100873.59;;;19.56;57.76
69223;BME280;56514;51.816;-0.026;2022-08-04T06:29:12;100878.63;;;19.59;58.04
69223;BME280;56514;51.816;-0.026;2022-08-04T06:32:07;100877.28;;;19.55;58.09
69223;BME280;56514;51.816;-0.026;2022-08-04T06:35:11;100875.16;;;19.66;57.49
69223;BME280;56514;51.816;-0.026;2022-08-04T06:37:59;100873.81;;;19.70;57.98
69223;BME280;56514;51.816;-0.026;2022-08-04T06:40:44;100867.38;;;19.81;57.26
69223;BME280;56514;51.816;-0.026;2022-08-04T06:43:30;100866.69;;;19.79;57.27
69223;BME280;56514;51.816;-0.026;2022-08-04T06:46:17;100881.44;;;19.83;57.24
69223;BME280;56514;51.816;-0.026;2022-08-04T06:49:03;100881.66;;;19.89;57.19
69223;BME280;56514;51.816;-0.026;2022-08-04T06:51:51;100874.31;;;19.91;57.09
69223;BME280;56514;51.816;-0.026;2022-08-04T06:54:37;100874.84;;;20.03;56.57
69223;BME280;56514;51.816;-0.026;2022-08-04T06:57:26;100875.69;;;20.03;56.41
69223;BME280;56514;51.816;-0.026;2022-08-04T07:00:12;100877.00;;;20.25;54.77
69223;BME280;56514;51.816;-0.026;2022-08-04T07:02:59;100882.03;;;20.28;55.20
69223;BME280;56514;51.816;-0.026;2022-08-04T07:05:48;100884.69;;;20.28;55.02
69223;BME280;56514;51.816;-0.026;2022-08-04T07:08:34;100894.28;;;20.38;54.33
69223;BME280;56514;51.816;-0.026;2022-08-04T07:11:20;100891.72;;;20.29;54.59
69223;BME280;56514;51.816;-0.026;2022-08-04T07:14:05;100895.94;;;20.39;54.67
69223;BME280;56514;51.816;-0.026;2022-08-04T07:16:51;100898.84;;;20.62;53.92
69223;BME280;56514;51.816;-0.026;2022-08-04T07:19:37;100902.56;;;20.69;53.76
69223;BME280;56514;51.816;-0.026;2022-08-04T07:22:26;100892.38;;;20.88;53.26
69223;BME280;56514;51.816;-0.026;2022-08-04T07:25:14;100898.88;;;20.86;52.89
69223;BME280;56514;51.816;-0.026;2022-08-04T07:27:59;100899.38;;;20.65;53.91
69223;BME280;56514;51.816;-0.026;2022-08-04T07:30:46;100902.19;;;20.56;54.13
69223;BME280;56514;51.816;-0.026;2022-08-04T07:33:32;100907.91;;;20.61;54.29
69223;BME280;56514;51.816;-0.026;2022-08-04T07:36:17;100903.91;;;20.73;53.54
69223;BME280;56514;51.816;-0.026;2022-08-04T07:39:02;100908.44;;;20.80;54.03
69223;BME280;56514;51.816;-0.026;2022-08-04T07:41:49;100896.56;;;20.91;53.52
69223;BME280;56514;51.816;-0.026;2022-08-04T07:44:35;100905.31;;;21.09;52.84
69223;BME280;56514;51.816;-0.026;2022-08-04T07:47:20;100896.94;;;21.20;52.77
69223;BME280;56514;51.816;-0.026;2022-08-04T07:50:08;100899.13;;;21.25;52.48
69223;BME280;56514;51.816;-0.026;2022-08-04T07:52:54;100900.44;;;21.37;51.92
69223;BME280;56514;51.816;-0.026;2022-08-04T07:55:40;100896.91;;;21.44;51.72
69223;BME280;56514;51.816;-0.026;2022-08-04T07:58:25;100897.09;;;21.59;51.30
69223;BME280;56514;51.816;-0.026;2022-08-04T08:01:12;100892.53;;;21.75;50.31
69223;BME280;56514;51.816;-0.026;2022-08-04T08:03:59;100895.84;;;21.85;49.76
69223;BME280;56514;51.816;-0.026;2022-08-04T08:06:44;100897.69;;;21.93;49.95
69223;BME280;56514;51.816;-0.026;2022-08-04T08:09:31;100899.72;;;21.91;49.68
69223;BME280;56514;51.816;-0.026;2022-08-04T08:12:17;100900.06;;;21.88;49.65
69223;BME280;56514;51.816;-0.026;2022-08-04T08:15:05;100891.16;;;21.87;49.84
69223;BME280;56514;51.816;-0.026;2022-08-04T08:17:50;100894.66;;;21.96;49.41
69223;BME280;56514;51.816;-0.026;2022-08-04T08:20:36;100896.41;;;22.19;49.16
69223;BME280;56514;51.816;-0.026;2022-08-04T08:23:21;100893.25;;;22.46;48.36
69223;BME280;56514;51.816;-0.026;2022-08-04T08:26:10;100894.53;;;22.67;47.83
69223;BME280;56514;51.816;-0.026;2022-08-04T08:28:56;100889.16;;;22.89;47.44
69223;BME280;56514;51.816;-0.026;2022-08-04T08:31:41;100901.59;;;23.13;46.12
69223;BME280;56514;51.816;-0.026;2022-08-04T08:34:27;100896.47;;;23.26;45.45
69223;BME280;56514;51.816;-0.026;2022-08-04T08:37:29;100898.66;;;23.45;45.34
69223;BME280;56514;51.816;-0.026;2022-08-04T08:40:28;100897.47;;;23.62;44.42
69223;BME280;56514;51.816;-0.026;2022-08-04T09:10:42;100895.53;;;25.21;40.80
69223;BME280;56514;51.816;-0.026;2022-08-04T09:13:33;100914.09;;;24.67;41.26
69223;BME280;56514;51.816;-0.026;2022-08-04T09:16:30;100902.44;;;24.31;42.64
69223;BME280;56514;51.816;-0.026;2022-08-04T09:19:27;100903.19;;;24.10;43.47
69223;BME280;56514;51.816;-0.026;2022-08-04T09:22:28;100905.59;;;24.20;42.37
69223;BME280;56514;51.816;-0.026;2022-08-04T09:25:19;100909.66;;;24.31;42.10
69223;BME280;56514;51.816;-0.026;2022-08-04T09:28:11;100903.84;;;24.63;41.84
69223;BME280;56514;51.816;-0.026;2022-08-04T09:31:10;100906.47;;;24.92;40.94
69223;BME280;56514;51.816;-0.026;2022-08-04T09:34:03;100909.63;;;25.16;41.24
69223;BME280;56514;51.816;-0.026;2022-08-04T09:36:55;100909.31;;;25.26;40.55
69223;BME280;56514;51.816;-0.026;2022-08-04T09:39:48;100912.13;;;24.97;41.03
69223;BME280;56514;51.816;-0.026;2022-08-04T09:43:08;100920.78;;;24.57;41.66
69223;BME280;56514;51.816;-0.026;2022-08-04T09:46:04;100913.44;;;24.51;41.44
69223;BME280;56514;51.816;-0.026;2022-08-04T09:54:52;100913.88;;;25.25;40.70
69223;BME280;56514;51.816;-0.026;2022-08-04T10:00:44;100915.09;;;25.44;39.24
69223;BME280;56514;51.816;-0.026;2022-08-04T10:03:33;100915.44;;;25.62;39.81
69223;BME280;56514;51.816;-0.026;2022-08-04T10:06:41;100918.81;;;25.98;39.02
69223;BME280;56514;51.816;-0.026;2022-08-04T10:15:42;100929.28;;;25.73;38.47
69223;BME280;56514;51.816;-0.026;2022-08-04T10:18:44;100927.13;;;25.97;38.06
69223;BME280;56514;51.816;-0.026;2022-08-04T10:24:35;100930.66;;;26.25;37.27
69223;BME280;56514;51.816;-0.026;2022-08-04T10:27:29;100915.66;;;26.22;36.64
69223;BME280;56514;51.816;-0.026;2022-08-04T10:30:18;100928.50;;;26.54;36.74
69223;BME280;56514;51.816;-0.026;2022-08-04T10:36:11;100934.28;;;26.92;35.06
69223;BME280;56514;51.816;-0.026;2022-08-04T10:39:16;100933.09;;;26.20;35.76
69223;BME280;56514;51.816;-0.026;2022-08-04T10:42:15;100935.25;;;26.31;36.54
69223;BME280;56514;51.816;-0.026;2022-08-04T10:45:13;100929.69;;;26.92;35.88
69223;BME280;56514;51.816;-0.026;2022-08-04T10:48:06;100939.78;;;27.37;35.14
69223;BME280;56514;51.816;-0.026;2022-08-04T10:51:14;100932.91;;;27.35;35.30
69223;BME280;56514;51.816;-0.026;2022-08-04T10:54:02;100943.06;;;27.20;34.15
69223;BME280;56514;51.816;-0.026;2022-08-04T11:00:09;100937.41;;;27.02;34.08
69223;BME280;56514;51.816;-0.026;2022-08-04T11:05:56;100934.78;;;27.41;34.40
69223;BME280;56514;51.816;-0.026;2022-08-04T11:08:54;100937.69;;;28.05;33.67
69223;BME280;56514;51.816;-0.026;2022-08-04T11:11:47;100945.91;;;28.42;32.44
69223;BME280;56514;51.816;-0.026;2022-08-04T11:14:43;100944.66;;;28.45;32.34
69223;BME280;56514;51.816;-0.026;2022-08-04T11:17:40;100940.91;;;28.52;31.81
69223;BME280;56514;51.816;-0.026;2022-08-04T11:20:41;100945.50;;;28.52;32.28
69223;BME280;56514;51.816;-0.026;2022-08-04T11:23:33;100947.94;;;29.04;32.01
69223;BME280;56514;51.816;-0.026;2022-08-04T11:26:23;100948.88;;;29.23;30.13
69223;BME280;56514;51.816;-0.026;2022-08-04T11:32:12;100953.75;;;27.93;32.48
69223;BME280;56514;51.816;-0.026;2022-08-04T11:35:01;100954.31;;;28.28;32.29
69223;BME280;56514;51.816;-0.026;2022-08-04T11:37:56;100949.72;;;28.85;31.76
69223;BME280;56514;51.816;-0.026;2022-08-04T11:40:51;100956.53;;;29.01;30.79
69223;BME280;56514;51.816;-0.026;2022-08-04T11:43:50;100957.88;;;28.85;30.62
69223;BME280;56514;51.816;-0.026;2022-08-04T11:46:42;100966.16;;;28.97;30.82
69223;BME280;56514;51.816;-0.026;2022-08-04T11:49:33;100955.91;;;29.06;31.01
69223;BME280;56514;51.816;-0.026;2022-08-04T11:52:20;100959.47;;;29.62;30.51
69223;BME280;56514;51.816;-0.026;2022-08-04T11:55:10;100957.63;;;29.56;29.24
69223;BME280;56514;51.816;-0.026;2022-08-04T11:57:57;100960.69;;;29.10;30.16
69223;BME280;56514;51.816;-0.026;2022-08-04T12:06:38;100969.31;;;28.37;32.16
69223;BME280;56514;51.816;-0.026;2022-08-04T12:09:51;100963.91;;;28.37;31.89
69223;BME280;56514;51.816;-0.026;2022-08-04T12:12:38;100958.84;;;28.53;32.12
69223;BME280;56514;51.816;-0.026;2022-08-04T12:15:31;100972.34;;;28.66;31.25
69223;BME280;56514;51.816;-0.026;2022-08-04T12:18:29;100963.22;;;28.54;31.84
69223;BME280;56514;51.816;-0.026;2022-08-04T12:21:41;100977.00;;;28.53;31.30
69223;BME280;56514;51.816;-0.026;2022-08-04T12:24:32;100979.28;;;28.62;31.10
69223;BME280;56514;51.816;-0.026;2022-08-04T12:27:26;100973.84;;;28.69;30.56
69223;BME280;56514;51.816;-0.026;2022-08-04T12:30:15;100981.97;;;28.69;31.08
69223;BME280;56514;51.816;-0.026;2022-08-04T12:33:11;100975.28;;;29.16;30.49
69223;BME280;56514;51.816;-0.026;2022-08-04T12:36:03;100985.34;;;29.40;29.66
69223;BME280;56514;51.816;-0.026;2022-08-04T12:39:06;100974.47;;;29.40;28.87
69223;BME280;56514;51.816;-0.026;2022-08-04T12:42:03;100976.94;;;29.48;29.04
69223;BME280;56514;51.816;-0.026;2022-08-04T12:44:51;100974.31;;;29.66;28.64
69223;BME280;56514;51.816;-0.026;2022-08-04T12:47:39;100981.13;;;29.75;28.27
69223;BME280;56514;51.816;-0.026;2022-08-04T12:50:25;100974.09;;;29.67;27.64
69223;BME280;56514;51.816;-0.026;2022-08-04T12:53:14;100969.72;;;29.66;27.60
69223;BME280;56514;51.816;-0.026;2022-08-04T12:56:01;100973.13;;;29.80;27.49
69223;BME280;56514;51.816;-0.026;2022-08-04T12:58:52;100968.16;;;29.77;27.12
69223;BME280;56514;51.816;-0.026;2022-08-04T13:01:39;100972.75;;;30.19;25.74
69223;BME280;56514;51.816;-0.026;2022-08-04T13:04:31;100978.94;;;30.08;26.15
69223;BME280;56514;51.816;-0.026;2022-08-04T13:07:19;100965.59;;;30.60;25.84
69223;BME280;56514;51.816;-0.026;2022-08-04T13:10:15;100969.69;;;31.17;25.65
69223;BME280;56514;51.816;-0.026;2022-08-04T13:13:02;100982.03;;;30.90;25.00
69223;BME280;56514;51.816;-0.026;2022-08-04T13:16:00;100975.28;;;30.56;25.28
69223;BME280;56514;51.816;-0.026;2022-08-04T13:18:46;100977.78;;;30.40;24.26
69223;BME280;56514;51.816;-0.026;2022-08-04T13:21:33;100976.28;;;30.44;24.44
69223;BME280;56514;51.816;-0.026;2022-08-04T13:24:19;100967.09;;;31.22;22.78
69223;BME280;56514;51.816;-0.026;2022-08-04T13:27:08;100969.81;;;31.22;22.82
69223;BME280;56514;51.816;-0.026;2022-08-04T13:29:56;100965.03;;;31.59;23.01
69223;BME280;56514;51.816;-0.026;2022-08-04T13:32:43;100969.94;;;31.27;22.99
69223;BME280;56514;51.816;-0.026;2022-08-04T13:35:29;100954.94;;;31.36;23.01
69223;BME280;56514;51.816;-0.026;2022-08-04T13:38:16;100962.22;;;31.65;22.99
69223;BME280;56514;51.816;-0.026;2022-08-04T13:41:04;100966.72;;;31.60;23.36
69223;BME280;56514;51.816;-0.026;2022-08-04T13:43:56;100956.59;;;31.37;23.52
69223;BME280;56514;51.816;-0.026;2022-08-04T13:46:49;100965.56;;;32.02;23.45
69223;BME280;56514;51.816;-0.026;2022-08-04T13:49:35;100959.16;;;31.62;23.29
69223;BME280;56514;51.816;-0.026;2022-08-04T13:52:24;100961.53;;;31.93;23.43
69223;BME280;56514;51.816;-0.026;2022-08-04T13:55:23;100961.28;;;32.41;22.86
69223;BME280;56514;51.816;-0.026;2022-08-04T13:58:18;100970.31;;;32.18;22.58
69223;BME280;56514;51.816;-0.026;2022-08-04T14:01:09;100969.13;;;32.14;23.23
69223;BME280;56514;51.816;-0.026;2022-08-04T14:04:19;100963.66;;;32.37;23.43
69223;BME280;56514;51.816;-0.026;2022-08-04T14:07:17;100969.88;;;33.56;21.88
69223;BME280;56514;51.816;-0.026;2022-08-04T14:10:09;100963.34;;;33.29;21.43
69223;BME280;56514;51.816;-0.026;2022-08-04T14:12:56;100960.00;;;32.08;22.76
69223;BME280;56514;51.816;-0.026;2022-08-04T14:15:42;100960.25;;;31.84;23.35
69223;BME280;56514;51.816;-0.026;2022-08-04T14:18:30;100966.84;;;31.76;23.67
69223;BME280;56514;51.816;-0.026;2022-08-04T14:21:16;100964.16;;;32.11;23.99
69223;BME280;56514;51.816;-0.026;2022-08-04T14:24:01;100970.44;;;33.42;22.07
69223;BME280;56514;51.816;-0.026;2022-08-04T14:26:46;100974.22;;;35.10;20.12
69223;BME280;56514;51.816;-0.026;2022-08-04T14:29:38;100972.94;;;36.54;18.30
69223;BME280;56514;51.816;-0.026;2022-08-04T14:32:25;100973.59;;;36.81;17.96
69223;BME280;56514;51.816;-0.026;2022-08-04T14:35:10;100970.81;;;35.83;18.40
69223;BME280;56514;51.816;-0.026;2022-08-04T14:37:58;100966.59;;;35.38;19.46
69223;BME280;56514;51.816;-0.026;2022-08-04T14:40:43;100969.22;;;36.80;18.26
69223;BME280;56514;51.816;-0.026;2022-08-04T14:43:29;100959.63;;;35.89;18.98
69223;BME280;56514;51.816;-0.026;2022-08-04T14:46:14;100961.09;;;35.70;18.92
69223;BME280;56514;51.816;-0.026;2022-08-04T14:51:54;100979.00;;;37.68;16.86
69223;BME280;56514;51.816;-0.026;2022-08-04T14:54:40;100972.09;;;37.40;17.16
69223;BME280;56514;51.816;-0.026;2022-08-04T14:57:25;100972.66;;;36.60;17.94
69223;BME280;56514;51.816;-0.026;2022-08-04T15:00:11;100977.69;;;35.54;18.69
69223;BME280;56514;51.816;-0.026;2022-08-04T15:03:02;100971.22;;;34.25;19.96
69223;BME280;56514;51.816;-0.026;2022-08-04T15:05:48;100979.78;;;33.01;21.13
69223;BME280;56514;51.816;-0.026;2022-08-04T15:08:33;100972.09;;;32.12;22.28
69223;BME280;56514;51.816;-0.026;2022-08-04T15:11:20;100984.50;;;31.51;23.42
69223;BME280;56514;51.816;-0.026;2022-08-04T15:14:06;100978.81;;;31.52;23.93
69223;BME280;56514;51.816;-0.026;2022-08-04T15:16:52;100976.94;;;31.64;23.34
69223;BME280;56514;51.816;-0.026;2022-08-04T15:19:37;100989.50;;;31.65;23.21
69223;BME280;56514;51.816;-0.026;2022-08-04T15:22:22;100964.97;;;31.77;23.17
69223;BME280;56514;51.816;-0.026;2022-08-04T15:25:08;100969.44;;;31.71;22.99
69223;BME280;56514;51.816;-0.026;2022-08-04T15:27:54;100974.38;;;31.10;23.70
69223;BME280;56514;51.816;-0.026;2022-08-04T15:30:42;100974.00;;;30.59;24.31
69223;BME280;56514;51.816;-0.026;2022-08-04T15:33:29;100977.63;;;30.35;24.80
69223;BME280;56514;51.816;-0.026;2022-08-04T15:46:00;100972.34;;;32.22;22.20
69223;BME280;56514;51.816;-0.026;2022-08-04T15:48:46;100976.44;;;32.99;21.44
69223;BME280;56514;51.816;-0.026;2022-08-04T15:51:31;100973.84;;;33.82;19.96
69223;BME280;56514;51.816;-0.026;2022-08-04T15:57:04;100977.63;;;32.64;21.60
69223;BME280;56514;51.816;-0.026;2022-08-04T16:00:04;100977.34;;;32.02;21.76
69223;BME280;56514;51.816;-0.026;2022-08-04T16:02:50;100989.09;;;31.50;23.11
69223;BME280;56514;51.816;-0.026;2022-08-04T16:05:35;100986.16;;;31.52;23.12
69223;BME280;56514;51.816;-0.026;2022-08-04T16:08:22;100994.72;;;31.67;22.75
69223;BME280;56514;51.816;-0.026;2022-08-04T16:14:15;100987.66;;;32.47;21.62
69223;BME280;56514;51.816;-0.026;2022-08-04T16:17:14;100980.03;;;31.91;21.85
69223;BME280;56514;51.816;-0.026;2022-08-04T16:20:07;100994.06;;;31.12;22.57
69223;BME280;56514;51.816;-0.026;2022-08-04T16:22:56;100993.94;;;30.17;23.35
69223;BME280;56514;51.816;-0.026;2022-08-04T16:25:46;101001.06;;;29.62;24.06
69223;BME280;56514;51.816;-0.026;2022-08-04T16:28:40;101006.81;;;29.17;25.00
69223;BME280;56514;51.816;-0.026;2022-08-04T16:31:25;101006.19;;;28.70;25.40
69223;BME280;56514;51.816;-0.026;2022-08-04T16:34:10;101010.94;;;28.11;25.59
69223;BME280;56514;51.816;-0.026;2022-08-04T16:36:58;101015.06;;;27.68;26.91
69223;BME280;56514;51.816;-0.026;2022-08-04T16:39:45;101013.38;;;27.41;26.88
69223;BME280;56514;51.816;-0.026;2022-08-04T16:42:32;101017.94;;;27.34;26.57
69223;BME280;56514;51.816;-0.026;2022-08-04T16:45:18;101008.56;;;27.30;27.11
69223;BME280;56514;51.816;-0.026;2022-08-04T16:48:09;101014.81;;;27.30;26.46
69223;BME280;56514;51.816;-0.026;2022-08-04T16:51:02;101008.06;;;27.20;27.23
69223;BME280;56514;51.816;-0.026;2022-08-04T16:53:56;101009.50;;;27.09;27.25
69223;BME280;56514;51.816;-0.026;2022-08-04T16:56:56;101023.31;;;27.21;26.89
69223;BME280;56514;51.816;-0.026;2022-08-04T16:59:50;101019.13;;;27.12;27.14
69223;BME280;56514;51.816;-0.026;2022-08-04T17:02:36;101017.44;;;27.11;26.96
69223;BME280;56514;51.816;-0.026;2022-08-04T17:05:32;101025.75;;;27.03;26.85
69223;BME280;56514;51.816;-0.026;2022-08-04T17:09:01;101027.38;;;26.91;26.68
69223;BME280;56514;51.816;-0.026;2022-08-04T17:16:33;101022.97;;;26.90;27.50
69223;BME280;56514;51.816;-0.026;2022-08-04T17:20:06;101026.97;;;26.94;26.83
69223;BME280;56514;51.816;-0.026;2022-08-04T17:31:24;101026.47;;;26.71;27.00
69223;BME280;56514;51.816;-0.026;2022-08-04T17:35:06;101026.47;;;26.77;26.53
69223;BME280;56514;51.816;-0.026;2022-08-04T17:38:59;101022.50;;;26.73;26.28
69223;BME280;56514;51.816;-0.026;2022-08-04T17:54:42;101041.50;;;26.18;26.60
69223;BME280;56514;51.816;-0.026;2022-08-04T17:57:31;101048.34;;;26.14;26.68
69223;BME280;56514;51.816;-0.026;2022-08-04T18:00:18;101039.19;;;25.94;26.67
69223;BME280;56514;51.816;-0.026;2022-08-04T18:03:03;101040.47;;;25.70;27.33
69223;BME280;56514;51.816;-0.026;2022-08-04T18:05:53;101039.94;;;25.60;27.55
69223;BME280;56514;51.816;-0.026;2022-08-04T18:08:39;101046.50;;;25.51;27.61
69223;BME280;56514;51.816;-0.026;2022-08-04T18:11:31;101039.94;;;25.39;27.07
69223;BME280;56514;51.816;-0.026;2022-08-04T18:14:48;101043.88;;;25.37;27.63
69223;BME280;56514;51.816;-0.026;2022-08-04T18:17:42;101034.63;;;25.31;27.72
69223;BME280;56514;51.816;-0.026;2022-08-04T18:20:34;101040.22;;;25.44;27.35
69223;BME280;56514;51.816;-0.026;2022-08-04T19:12:01;101072.03;;;26.67;25.69
69223;BME280;56514;51.816;-0.026;2022-08-04T19:14:50;101079.28;;;26.05;25.95
69223;BME280;56514;51.816;-0.026;2022-08-04T19:17:35;101088.69;;;25.52;27.35
69223;BME280;56514;51.816;-0.026;2022-08-04T19:20:20;101086.84;;;25.03;28.21
69223;BME280;56514;51.816;-0.026;2022-08-04T19:23:05;101093.19;;;24.66;28.48
69223;BME280;56514;51.816;-0.026;2022-08-04T19:26:02;101095.09;;;24.29;29.24
69223;BME280;56514;51.816;-0.026;2022-08-04T19:28:52;101097.81;;;24.06;29.92
69223;BME280;56514;51.816;-0.026;2022-08-04T19:31:37;101101.72;;;23.81;30.42